Latest Weather Observations for Gunnedah Airport

IDN60801

Issued at 5:02 pm EST Thursday 27 July 2017 (issued every 30 minutes, with the page automatically refreshed every 10 minutes)

About weather observations | Map of weather stations | Latest weather observations for NSW | Other Formats
Station Details ID: 055202 Name: GUNNEDAH AIRPORT AWS Lat: -30.95 Lon: 150.25 Height: 262.57 m
Data from the previous 72 hours. | See also: Recent months at Gunnedah Airport
Date/Time
EST
Temp
°C
App
Temp
°C
Dew
Point
°C
Rel
Hum
%
Delta-T
°C
Wind Press
QNH
hPa
Press
MSL
hPa
Rain since
9am
mm
Dir  Spd
km/h
Gust
km/h
Spd
kts
Gust
kts
27/05:00pm 12.2 9.2 1.8 49 4.5 NNW 7 9 4 5 1021.7 1022.1 0.0
27/04:30pm 16.2 13.0 0.7 35 6.8 NNW 7 11 4 6 1021.7 1022.1 0.0
27/04:00pm 16.5 13.2 0.2 33 7.1 NNW 7 9 4 5 1021.8 1022.2 0.0
27/03:30pm 17.0 13.0 -2.1 27 8.0 NNW 9 11 5 6 1021.8 1022.2 0.0
27/03:00pm 18.8 16.0 -3.3 22 9.1 NW 2 7 1 4 1021.8 1022.2 0.0
27/02:30pm 18.3 14.9 -2.0 25 8.6 WNW 6 9 3 5 1021.9 1022.3 0.0
27/02:00pm 17.5 13.6 -1.2 28 8.0 SSW 9 13 5 7 1022.1 1022.5 0.0
27/01:30pm 17.0 13.8 -0.2 31 7.5 SSW 6 9 3 5 1022.6 1022.9 0.0
27/01:00pm 16.3 13.2 1.6 37 6.6 S 7 13 4 7 1023.0 1023.3 0.0
27/12:30pm 15.7 12.9 2.2 40 6.1 ESE 6 13 3 7 1023.1 1023.4 0.0
27/12:00pm 15.4 11.7 2.2 41 5.9 ESE 11 17 6 9 1023.4 1023.7 0.0
27/11:30am 14.7 11.1 2.9 45 5.4 ESE 11 15 6 8 1024.1 1024.4 0.0
27/11:00am 14.2 10.4 3.9 50 4.7 ESE 13 20 7 11 1024.6 1025.0 0.0
27/10:30am 13.1 9.8 4.3 55 4.1 SE 11 17 6 9 1025.1 1025.5 0.0
27/10:00am 12.4 9.5 4.9 60 3.5 ESE 9 15 5 8 1025.3 1025.7 0.0
27/09:30am 10.8 6.7 4.3 64 3.0 E 15 17 8 9 1025.3 1025.7 0.0
27/09:00am 9.9 7.5 4.3 68 2.5 ESE 6 9 3 5 1025.4 1025.8 0.0
27/08:30am 6.8 5.5 4.3 84 1.1 CALM 0 0 0 0 1024.8 1025.2 0.0
27/08:27am 6.7 5.5 4.5 86 1.0 CALM 0 0 0 0 1024.8 1025.2 0.0
27/08:00am 1.7 -0.3 -0.1 88 0.7 CALM 0 0 0 0 1024.6 1025.0 0.0
27/07:30am -0.6 -4.6 -2.0 90 0.5 E 9 11 5 6 1024.1 1024.4 0.0
27/07:00am -1.5 -3.8 -2.6 92 0.3 CALM 0 6 0 3 1024.0 1024.3 0.0
27/06:30am -1.5 -5.0 -2.6 92 0.3 SSE 6 7 3 4 1023.9 1024.2 0.0
27/06:00am -1.7 -5.8 -3.1 90 0.4 SSW 9 11 5 6 1023.8 1024.1 0.0
27/05:30am -0.9 -3.2 -2.5 89 0.5 CALM 0 0 0 0 1023.6 1023.9 0.0
27/05:00am -0.4 -3.0 -2.0 89 0.5 SSW 2 11 1 6 1023.4 1023.7 0.0
27/04:30am 0.1 -2.2 -2.0 86 0.7 CALM 0 0 0 0 1023.6 1023.9 0.0
27/04:00am 2.2 -1.0 0.7 90 0.6 ESE 7 9 4 5 1023.4 1023.7 0.0
27/03:30am 0.4 -3.1 -1.5 87 0.7 E 7 11 4 6 1023.5 1023.8 0.0
27/03:00am 1.8 -1.6 -2.0 76 1.3 NNE 6 6 3 3 1023.8 1024.1 0.0
27/02:30am 5.7 1.2 2.2 78 1.4 SE 15 19 8 10 1023.6 1023.9 0.0
27/02:00am 4.1 -0.1 1.8 85 0.9 ESE 13 17 7 9 1023.6 1023.9 0.0
27/01:30am 2.9 -1.1 0.6 85 0.9 ENE 11 17 6 9 1023.8 1024.1 0.0
27/01:00am 2.3 -2.3 -0.8 80 1.1 NNE 13 19 7 10 1023.5 1023.8 0.0
27/12:30am 5.9 1.2 3.1 82 1.2 SSW 17 20 9 11 1023.4 1023.7 0.0
27/12:00am 5.6 3.0 0.8 71 1.9 SSW 4 11 2 6 1023.5 1023.8 0.0
 
Date/Time
EST
Temp
°C
App
Temp
°C
Dew
Point
°C
Rel
Hum
%
Delta-T
°C
Wind Press
QNH
hPa
Press
MSL
hPa
Rain since
9am
mm
Dir  Spd
km/h
Gust
km/h
Spd
kts
Gust
kts
26/11:30pm 4.1 1.1 0.6 78 1.4 SSW 6 7 3 4 1023.5 1023.8 0.0
26/11:00pm 1.9 -1.6 -1.2 80 1.1 WNW 7 11 4 6 1023.4 1023.7 0.0
26/10:58pm 1.9 -1.6 -1.7 77 1.3 W 7 11 4 6 1023.4 1023.7 0.0
26/10:30pm 6.9 3.7 3.2 77 1.6 SW 9 11 5 6 1023.2 1023.5 0.0
26/10:00pm 6.3 2.8 1.2 70 2.1 S 9 15 5 8 1023.0 1023.3 0.0
26/09:30pm 6.4 4.3 1.5 71 2.0 NE 2 6 1 3 1022.9 1023.2 0.0
26/09:00pm 7.8 4.4 1.9 66 2.5 SW 9 13 5 7 1022.5 1022.8 0.0
26/08:30pm 10.0 5.8 1.6 56 3.6 WSW 13 15 7 8 1022.3 1022.6 0.0
26/08:00pm 13.3 9.7 3.1 50 4.6 WSW 11 13 6 7 1021.9 1022.3 0.0
26/07:30pm 12.9 8.4 2.2 48 4.7 SW 15 17 8 9 1021.7 1022.1 0.0
26/07:00pm 14.3 9.6 1.2 41 5.7 WSW 15 17 8 9 1021.3 1021.7 0.0
26/06:30pm 17.0 11.4 1.4 35 7.0 SW 20 32 11 17 1020.7 1021.0 0.0
26/06:00pm 16.7 11.6 0.8 34 7.0 WSW 17 28 9 15 1020.3 1020.6 0.0
26/05:30pm 16.7 12.4 0.8 34 7.0 WSW 13 20 7 11 1019.9 1020.2 0.0
26/05:00pm 19.2 13.2 0.8 29 8.3 W 22 32 12 17 1019.6 1019.9 0.0
26/04:30pm 20.5 14.0 0.4 26 9.1 W 24 33 13 18 1019.5 1019.8 0.0
26/04:00pm 21.5 14.9 -0.5 23 9.9 W 24 33 13 18 1019.2 1019.5 0.0
26/03:30pm 21.8 15.0 -1.5 21 10.3 W 24 37 13 20 1019.0 1019.3 0.0
26/03:00pm 22.3 15.7 -0.4 22 10.3 W 24 35 13 19 1019.0 1019.3 0.0
26/02:30pm 22.0 15.9 0.5 24 9.9 WNW 22 33 12 18 1019.2 1019.5 0.0
26/02:00pm 21.2 14.8 1.0 26 9.3 NW 24 37 13 20 1019.2 1019.5 0.0
26/01:30pm 21.1 14.5 -0.2 24 9.6 NW 24 35 13 19 1019.5 1019.8 0.0
26/01:00pm 20.7 15.2 2.0 29 8.7 NW 20 37 11 20 1019.8 1020.1 0.0
26/12:30pm 19.4 13.8 1.4 30 8.2 NW 20 32 11 17 1020.3 1020.6 0.0
26/12:00pm 18.7 13.1 1.2 31 7.9 WNW 20 28 11 15 1021.0 1021.3 0.0
26/11:30am 16.2 12.5 4.6 46 5.5 NW 13 20 7 11 1021.7 1022.1 0.0
26/11:00am 14.7 11.8 4.7 51 4.7 NNW 9 13 5 7 1022.4 1022.7 0.0
26/10:30am 14.2 11.1 3.7 49 4.8 NW 9 13 5 7 1022.8 1023.1 0.0
26/10:00am 12.8 10.8 4.3 56 3.9 SSW 4 9 2 5 1023.1 1023.4 0.0
26/09:30am 11.0 8.5 4.9 66 2.8 E 7 9 4 5 1023.1 1023.4 0.0
26/09:00am 8.5 5.1 3.9 73 2.0 SE 11 13 6 7 1023.3 1023.6 0.0
26/08:30am 7.5 6.6 6.0 90 0.7 CALM 0 0 0 0 1023.1 1023.4 0.0
26/08:00am 4.0 2.5 3.1 94 0.4 CALM 0 0 0 0 1022.9 1023.2 0.0
26/07:30am 0.4 -1.7 -1.0 90 0.5 CALM 0 0 0 0 1022.7 1023.0 0.0
26/07:00am -0.9 -3.2 -2.3 90 0.4 CALM 0 0 0 0 1022.4 1022.7 0.0
26/06:30am 0.1 -3.2 -1.3 90 0.5 E 6 9 3 5 1022.1 1022.5 0.0
26/06:00am -0.2 -3.2 -1.6 90 0.5 ENE 4 7 2 4 1021.9 1022.3 0.0
26/05:30am 0.1 -2.1 -1.3 90 0.5 CALM 0 0 0 0 1021.7 1022.1 0.0
26/05:00am 0.0 -3.5 -1.3 91 0.5 SSE 7 7 4 4 1021.7 1022.1 0.0
26/04:30am -0.1 -2.3 -1.4 91 0.5 CALM 0 0 0 0 1021.5 1021.9 0.0
26/04:00am 0.7 -2.5 -0.4 92 0.4 S 6 7 3 4 1021.5 1021.9 0.0
26/03:30am 0.4 -1.7 -0.9 91 0.5 CALM 0 0 0 0 1021.5 1021.9 0.0
26/03:00am 0.8 -1.3 -0.5 91 0.5 CALM 0 0 0 0 1021.9 1022.3 0.0
26/02:30am 0.1 -2.1 -1.5 89 0.6 CALM 0 0 0 0 1021.9 1022.3 0.0
26/02:00am 1.3 -0.7 -0.2 90 0.5 CALM 0 0 0 0 1022.3 1022.6 0.0
26/01:30am 1.4 -0.6 -0.2 89 0.6 CALM 0 0 0 0 1022.4 1022.7 0.0
26/01:00am 1.3 -0.8 -0.6 87 0.7 CALM 0 0 0 0 1022.5 1022.8 0.0
26/12:30am 2.7 0.9 1.1 89 0.6 CALM 0 0 0 0 1022.5 1022.8 0.0
26/12:00am 3.1 1.4 1.8 91 0.5 CALM 0 0 0 0 1022.6 1022.9 0.0
 
Date/Time
EST
Temp
°C
App
Temp
°C
Dew
Point
°C
Rel
Hum
%
Delta-T
°C
Wind Press
QNH
hPa
Press
MSL
hPa
Rain since
9am
mm
Dir  Spd
km/h
Gust
km/h
Spd
kts
Gust
kts
25/11:30pm 3.1 1.3 1.0 86 0.8 CALM 0 0 0 0 1022.7 1023.0 0.0
25/11:00pm 3.9 2.2 2.1 88 0.7 CALM 0 0 0 0 1022.7 1023.0 0.0
25/10:30pm 4.1 2.5 2.5 89 0.7 CALM 0 0 0 0 1022.6 1022.9 0.0
25/10:00pm 4.6 3.0 2.5 86 0.9 CALM 0 0 0 0 1022.6 1022.9 0.0
25/09:30pm 4.9 3.3 2.6 85 0.9 CALM 0 0 0 0 1022.6 1022.9 0.0
25/09:00pm 4.8 3.2 2.2 83 1.1 CALM 0 0 0 0 1022.5 1022.8 0.0
25/08:30pm 6.1 4.5 2.6 78 1.5 CALM 0 0 0 0 1022.4 1022.7 0.0
25/08:00pm 7.0 5.6 3.4 78 1.5 CALM 0 0 0 0 1022.4 1022.7 0.0
25/07:30pm 6.3 4.7 2.6 77 1.5 CALM 0 0 0 0 1022.4 1022.7 0.0
25/07:00pm 8.4 7.0 3.5 71 2.1 CALM 0 0 0 0 1022.4 1022.7 0.0
25/06:30pm 8.3 5.9 2.3 66 2.5 NNW 4 6 2 3 1022.3 1022.6 0.0
25/06:00pm 10.1 6.9 2.9 61 3.1 N 9 11 5 6 1022.0 1022.4 0.0
25/05:30pm 11.4 8.3 3.7 59 3.5 N 9 11 5 6 1021.8 1022.2 0.0
25/05:00pm 13.5 9.9 4.9 56 4.0 NNE 13 15 7 8 1021.8 1022.2 0.0
25/04:30pm 17.7 15.2 3.6 39 6.7 N 6 9 3 5 1021.6 1022.0 0.0
25/04:00pm 18.2 14.8 2.1 34 7.4 NNW 9 11 5 6 1021.6 1022.0 0.0
25/03:30pm 18.5 14.8 2.4 34 7.5 NNW 11 17 6 9 1021.8 1022.2 0.0
25/03:00pm 18.8 15.5 2.2 33 7.7 ESE 9 13 5 7 1022.0 1022.4 0.0
25/02:30pm 18.8 16.0 3.0 35 7.4 SSE 7 13 4 7 1022.3 1022.6 0.0
25/02:00pm 18.3 14.7 4.8 41 6.5 E 13 19 7 10 1022.5 1022.8 0.0
25/01:30pm 17.5 14.2 2.7 37 6.9 NE 9 15 5 8 1023.0 1023.3 0.0
25/01:00pm 17.7 15.2 3.9 40 6.5 NW 6 13 3 7 1023.4 1023.7 0.0
25/12:30pm 16.9 13.7 3.2 40 6.4 WNW 9 15 5 8 1023.9 1024.2 0.0
25/12:00pm 16.4 14.0 5.4 48 5.3 N 7 13 4 7 1024.4 1024.8 0.0
25/11:30am 14.8 12.2 4.2 49 5.0 NNE 7 11 4 6 1025.0 1025.4 0.0
25/11:00am 13.6 10.9 3.9 52 4.4 NE 7 11 4 6 1025.6 1026.0 0.0
25/10:30am 12.5 10.1 4.2 57 3.8 ENE 6 9 3 5 1026.1 1026.5 0.0
25/10:00am 10.7 8.2 3.7 62 3.1 ENE 6 9 3 5 1026.1 1026.5 0.0
25/09:30am 9.1 7.7 3.5 68 2.5 CALM 0 0 0 0 1026.3 1026.6 0.0
25/09:00am 7.4 6.0 3.3 75 1.8 CALM 0 0 0 0 1026.0 1026.4 0.0
25/08:30am 4.8 3.2 2.3 84 1.0 CALM 0 0 0 0 1025.8 1026.2 0.0
25/08:00am 0.9 -1.2 -0.5 90 0.5 CALM 0 0 0 0 1025.5 1025.9 0.0
25/07:30am -1.3 -3.6 -2.6 91 0.4 CALM 0 0 0 0 1025.2 1025.6 0.0
25/07:00am -2.9 -5.4 -4.2 91 0.3 CALM 0 0 0 0 1025.1 1025.5 0.0
25/06:30am -2.7 -5.2 -4.0 91 0.3 CALM 0 0 0 0 1024.7 1025.1 0.0
25/06:00am -2.6 -5.1 -3.9 91 0.3 CALM 0 0 0 0 1024.3 1024.6 0.0
25/05:30am -1.9 -4.3 -3.3 90 0.4 CALM 0 0 0 0 1023.9 1024.2 0.0
25/05:00am -2.3 -4.8 -3.6 91 0.3 CALM 0 0 0 0 1023.6 1023.9 0.0
25/04:30am -1.9 -4.7 -3.0 92 0.3 SSE 2 7 1 4 1023.4 1023.7 0.0
25/04:00am -1.4 -4.5 -2.5 92 0.3 S 4 9 2 5 1023.3 1023.6 0.0
25/03:30am -1.4 -3.8 -2.8 90 0.4 CALM 0 0 0 0 1023.5 1023.8 0.0
25/03:00am -1.2 -3.6 -2.9 88 0.5 CALM 0 0 0 0 1023.5 1023.8 0.0
25/02:30am -0.6 -2.9 -2.0 90 0.5 CALM 0 0 0 0 1023.3 1023.6 0.0
25/02:00am -0.7 -3.0 -2.0 91 0.4 CALM 0 0 0 0 1023.2 1023.5 0.0
25/01:30am -0.5 -2.7 -1.9 90 0.5 CALM 0 0 0 0 1023.2 1023.5 0.0
25/01:00am -1.4 -3.9 -3.7 84 0.7 CALM 0 0 0 0 1023.2 1023.5 0.0
25/12:30am -0.5 -2.8 -2.7 85 0.7 CALM 0 0 0 0 1023.2 1023.5 0.0
25/12:00am 1.4 -1.4 -0.4 88 0.7 SSW 4 7 2 4 1023.3 1023.6 0.0
 
Date/Time
EST
Temp
°C
App
Temp
°C
Dew
Point
°C
Rel
Hum
%
Delta-T
°C
Wind Press
QNH
hPa
Press
MSL
hPa
Rain since
9am
mm
Dir  Spd
km/h
Gust
km/h
Spd
kts
Gust
kts
24/11:30pm 1.4 -0.6 -0.2 89 0.6 CALM 0 7 0 4 1023.3 1023.6 0.0
24/11:00pm 0.8 -1.4 -1.8 83 1.0 CALM 0 6 0 3 1023.3 1023.6 0.0
24/10:30pm 1.3 -0.8 -0.6 87 0.7 CALM 0 11 0 6 1023.3 1023.6 0.0
24/10:00pm 1.2 -1.0 -1.2 84 0.9 CALM 0 0 0 0 1023.1 1023.4 0.0
24/09:30pm 1.6 -1.8 -1.8 78 1.2 N 6 9 3 5 1022.8 1023.1 0.0
24/09:00pm 3.1 -0.2 0.0 80 1.2 NNE 7 9 4 5 1022.5 1022.8 0.0
24/08:30pm 4.3 2.5 1.0 79 1.3 CALM 0 0 0 0 1022.5 1022.8 0.0
24/08:00pm 5.6 3.9 1.9 77 1.5 CALM 0 0 0 0 1022.3 1022.6 0.0
24/07:30pm 7.0 5.4 2.5 73 1.9 CALM 0 0 0 0 1022.1 1022.5 0.0
24/07:00pm 6.5 3.7 1.8 72 1.9 NW 6 7 3 4 1021.9 1022.3 0.0
24/06:30pm 7.8 4.0 1.9 66 2.5 S 11 15 6 8 1021.6 1022.0 0.0
24/06:00pm 10.4 6.8 3.2 61 3.2 S 11 11 6 6 1021.2 1021.6 0.0
24/05:30pm 12.4 9.7 2.6 51 4.3 ENE 6 7 3 4 1020.9 1021.2 0.0

Other Formats:

Comma delimited format used in spreadsheet applications
http://www.bom.gov.au/fwo/IDN60801/IDN60801.95740.axf

JavaScript Object Notation format (JSON) in row-major order
http://www.bom.gov.au/fwo/IDN60801/IDN60801.95740.json